sensor_id;sensor_type;location;lat;lon;timestamp;P1;durP1;ratioP1;P2;durP2;ratioP2
3941;SDS011;1985;48.592;8.850;2022-07-17T00:00:16;10.18;;;2.30;;
3941;SDS011;1985;48.592;8.850;2022-07-17T00:02:42;10.00;;;2.25;;
3941;SDS011;1985;48.592;8.850;2022-07-17T00:05:08;10.37;;;2.20;;
3941;SDS011;1985;48.592;8.850;2022-07-17T00:07:34;9.43;;;2.10;;
3941;SDS011;1985;48.592;8.850;2022-07-17T00:10:00;10.50;;;2.08;;
3941;SDS011;1985;48.592;8.850;2022-07-17T00:12:26;10.33;;;2.47;;
3941;SDS011;1985;48.592;8.850;2022-07-17T00:14:52;10.20;;;2.20;;
3941;SDS011;1985;48.592;8.850;2022-07-17T00:17:18;10.07;;;2.40;;
3941;SDS011;1985;48.592;8.850;2022-07-17T00:19:44;11.40;;;2.35;;
3941;SDS011;1985;48.592;8.850;2022-07-17T00:22:09;9.70;;;2.20;;
3941;SDS011;1985;48.592;8.850;2022-07-17T00:24:35;12.17;;;2.27;;
3941;SDS011;1985;48.592;8.850;2022-07-17T00:27:01;9.80;;;2.03;;
3941;SDS011;1985;48.592;8.850;2022-07-17T00:29:26;9.10;;;2.00;;
3941;SDS011;1985;48.592;8.850;2022-07-17T00:31:53;10.00;;;2.37;;
3941;SDS011;1985;48.592;8.850;2022-07-17T00:34:19;12.10;;;2.50;;
3941;SDS011;1985;48.592;8.850;2022-07-17T00:36:44;16.83;;;2.38;;
3941;SDS011;1985;48.592;8.850;2022-07-17T00:39:10;11.00;;;2.20;;
3941;SDS011;1985;48.592;8.850;2022-07-17T00:41:36;11.33;;;2.17;;
3941;SDS011;1985;48.592;8.850;2022-07-17T00:44:05;10.70;;;2.33;;
3941;SDS011;1985;48.592;8.850;2022-07-17T00:46:31;11.18;;;2.53;;
3941;SDS011;1985;48.592;8.850;2022-07-17T00:48:57;11.10;;;2.27;;
3941;SDS011;1985;48.592;8.850;2022-07-17T00:51:23;13.35;;;2.22;;
3941;SDS011;1985;48.592;8.850;2022-07-17T00:53:49;9.50;;;2.15;;
3941;SDS011;1985;48.592;8.850;2022-07-17T00:56:16;9.70;;;2.10;;
3941;SDS011;1985;48.592;8.850;2022-07-17T00:58:42;11.77;;;2.40;;
3941;SDS011;1985;48.592;8.850;2022-07-17T01:01:09;10.20;;;2.30;;
3941;SDS011;1985;48.592;8.850;2022-07-17T01:03:35;10.75;;;2.30;;
3941;SDS011;1985;48.592;8.850;2022-07-17T01:06:01;9.80;;;2.43;;
3941;SDS011;1985;48.592;8.850;2022-07-17T01:08:27;11.10;;;2.50;;
3941;SDS011;1985;48.592;8.850;2022-07-17T01:10:53;9.50;;;2.00;;
3941;SDS011;1985;48.592;8.850;2022-07-17T01:13:19;10.17;;;2.30;;
3941;SDS011;1985;48.592;8.850;2022-07-17T01:15:45;9.00;;;1.95;;
3941;SDS011;1985;48.592;8.850;2022-07-17T01:18:12;9.40;;;2.30;;
3941;SDS011;1985;48.592;8.850;2022-07-17T01:20:40;10.25;;;2.40;;
3941;SDS011;1985;48.592;8.850;2022-07-17T01:23:08;10.30;;;2.20;;
3941;SDS011;1985;48.592;8.850;2022-07-17T01:25:35;10.32;;;2.38;;
3941;SDS011;1985;48.592;8.850;2022-07-17T01:28:00;10.80;;;2.50;;
3941;SDS011;1985;48.592;8.850;2022-07-17T01:30:27;10.30;;;2.45;;
3941;SDS011;1985;48.592;8.850;2022-07-17T01:32:53;9.23;;;2.00;;
3941;SDS011;1985;48.592;8.850;2022-07-17T01:35:19;9.70;;;2.40;;
3941;SDS011;1985;48.592;8.850;2022-07-17T01:37:45;11.45;;;2.55;;
3941;SDS011;1985;48.592;8.850;2022-07-17T01:40:12;9.48;;;2.20;;
3941;SDS011;1985;48.592;8.850;2022-07-17T01:42:41;10.55;;;2.42;;
3941;SDS011;1985;48.592;8.850;2022-07-17T01:45:08;10.40;;;2.40;;
3941;SDS011;1985;48.592;8.850;2022-07-17T01:47:34;9.90;;;2.33;;
3941;SDS011;1985;48.592;8.850;2022-07-17T01:50:00;9.40;;;2.10;;
3941;SDS011;1985;48.592;8.850;2022-07-17T01:52:27;10.50;;;2.60;;
3941;SDS011;1985;48.592;8.850;2022-07-17T01:54:53;10.50;;;2.25;;
3941;SDS011;1985;48.592;8.850;2022-07-17T01:57:19;12.00;;;2.40;;
3941;SDS011;1985;48.592;8.850;2022-07-17T01:59:45;9.35;;;2.30;;
3941;SDS011;1985;48.592;8.850;2022-07-17T02:02:13;10.48;;;2.55;;
3941;SDS011;1985;48.592;8.850;2022-07-17T02:04:42;10.00;;;2.15;;
3941;SDS011;1985;48.592;8.850;2022-07-17T02:07:08;9.60;;;2.10;;
3941;SDS011;1985;48.592;8.850;2022-07-17T02:09:35;9.85;;;2.40;;
3941;SDS011;1985;48.592;8.850;2022-07-17T02:12:01;10.13;;;2.33;;
3941;SDS011;1985;48.592;8.850;2022-07-17T02:14:27;8.80;;;1.83;;
3941;SDS011;1985;48.592;8.850;2022-07-17T02:16:53;11.17;;;2.53;;
3941;SDS011;1985;48.592;8.850;2022-07-17T02:19:19;9.43;;;2.17;;
3941;SDS011;1985;48.592;8.850;2022-07-17T02:21:45;9.57;;;2.10;;
3941;SDS011;1985;48.592;8.850;2022-07-17T02:24:12;11.50;;;2.50;;
3941;SDS011;1985;48.592;8.850;2022-07-17T02:26:38;11.47;;;3.20;;
3941;SDS011;1985;48.592;8.850;2022-07-17T02:29:03;9.90;;;2.28;;
3941;SDS011;1985;48.592;8.850;2022-07-17T02:31:29;10.77;;;2.47;;
3941;SDS011;1985;48.592;8.850;2022-07-17T02:33:55;9.90;;;2.30;;
3941;SDS011;1985;48.592;8.850;2022-07-17T02:36:20;9.98;;;2.40;;
3941;SDS011;1985;48.592;8.850;2022-07-17T02:38:46;10.60;;;2.70;;
3941;SDS011;1985;48.592;8.850;2022-07-17T02:41:13;10.65;;;2.78;;
3941;SDS011;1985;48.592;8.850;2022-07-17T02:43:40;10.30;;;2.50;;
3941;SDS011;1985;48.592;8.850;2022-07-17T02:46:06;12.77;;;2.10;;
3941;SDS011;1985;48.592;8.850;2022-07-17T02:48:32;9.30;;;2.00;;
3941;SDS011;1985;48.592;8.850;2022-07-17T02:50:58;11.18;;;2.60;;
3941;SDS011;1985;48.592;8.850;2022-07-17T02:53:23;9.63;;;2.03;;
3941;SDS011;1985;48.592;8.850;2022-07-17T02:55:49;9.93;;;2.20;;
3941;SDS011;1985;48.592;8.850;2022-07-17T02:58:14;10.20;;;2.40;;
3941;SDS011;1985;48.592;8.850;2022-07-17T03:00:40;9.90;;;2.00;;
3941;SDS011;1985;48.592;8.850;2022-07-17T03:03:06;9.75;;;2.05;;
3941;SDS011;1985;48.592;8.850;2022-07-17T03:05:31;9.20;;;2.00;;
3941;SDS011;1985;48.592;8.850;2022-07-17T03:07:57;10.33;;;2.47;;
3941;SDS011;1985;48.592;8.850;2022-07-17T03:10:23;10.13;;;2.63;;
3941;SDS011;1985;48.592;8.850;2022-07-17T03:12:48;9.90;;;2.50;;
3941;SDS011;1985;48.592;8.850;2022-07-17T03:15:14;9.70;;;2.10;;
3941;SDS011;1985;48.592;8.850;2022-07-17T03:17:41;9.75;;;2.33;;
3941;SDS011;1985;48.592;8.850;2022-07-17T03:20:07;10.10;;;2.50;;
3941;SDS011;1985;48.592;8.850;2022-07-17T03:22:34;10.20;;;2.10;;
3941;SDS011;1985;48.592;8.850;2022-07-17T03:24:59;10.67;;;2.30;;
3941;SDS011;1985;48.592;8.850;2022-07-17T03:27:25;10.48;;;2.60;;
3941;SDS011;1985;48.592;8.850;2022-07-17T03:29:52;9.27;;;2.00;;
3941;SDS011;1985;48.592;8.850;2022-07-17T03:32:18;10.60;;;2.38;;
3941;SDS011;1985;48.592;8.850;2022-07-17T03:34:44;9.60;;;2.50;;
3941;SDS011;1985;48.592;8.850;2022-07-17T03:37:10;14.43;;;2.30;;
3941;SDS011;1985;48.592;8.850;2022-07-17T03:39:35;10.40;;;2.50;;
3941;SDS011;1985;48.592;8.850;2022-07-17T03:42:01;9.87;;;2.70;;
3941;SDS011;1985;48.592;8.850;2022-07-17T03:44:28;10.10;;;2.20;;
3941;SDS011;1985;48.592;8.850;2022-07-17T03:46:53;11.50;;;2.67;;
3941;SDS011;1985;48.592;8.850;2022-07-17T03:49:19;9.90;;;2.65;;
3941;SDS011;1985;48.592;8.850;2022-07-17T03:51:45;9.95;;;2.60;;
3941;SDS011;1985;48.592;8.850;2022-07-17T03:54:10;12.17;;;2.80;;
3941;SDS011;1985;48.592;8.850;2022-07-17T03:56:36;9.50;;;2.40;;
3941;SDS011;1985;48.592;8.850;2022-07-17T03:59:02;10.90;;;2.60;;
3941;SDS011;1985;48.592;8.850;2022-07-17T04:01:27;10.40;;;2.30;;
3941;SDS011;1985;48.592;8.850;2022-07-17T04:03:53;9.57;;;2.27;;
3941;SDS011;1985;48.592;8.850;2022-07-17T04:06:18;9.70;;;2.50;;
3941;SDS011;1985;48.592;8.850;2022-07-17T04:08:44;10.50;;;2.70;;
3941;SDS011;1985;48.592;8.850;2022-07-17T04:11:10;10.13;;;2.60;;
3941;SDS011;1985;48.592;8.850;2022-07-17T04:13:36;11.02;;;2.83;;
3941;SDS011;1985;48.592;8.850;2022-07-17T04:16:02;10.00;;;2.90;;
3941;SDS011;1985;48.592;8.850;2022-07-17T04:18:29;10.10;;;2.30;;
3941;SDS011;1985;48.592;8.850;2022-07-17T04:20:58;12.48;;;2.65;;
3941;SDS011;1985;48.592;8.850;2022-07-17T04:23:25;11.10;;;2.60;;
3941;SDS011;1985;48.592;8.850;2022-07-17T04:25:52;10.48;;;2.60;;
3941;SDS011;1985;48.592;8.850;2022-07-17T04:28:18;11.85;;;2.80;;
3941;SDS011;1985;48.592;8.850;2022-07-17T04:30:44;10.80;;;2.60;;
3941;SDS011;1985;48.592;8.850;2022-07-17T04:33:11;10.00;;;2.22;;
3941;SDS011;1985;48.592;8.850;2022-07-17T04:35:37;9.85;;;2.25;;
3941;SDS011;1985;48.592;8.850;2022-07-17T04:38:04;10.90;;;2.70;;
3941;SDS011;1985;48.592;8.850;2022-07-17T04:40:31;11.10;;;2.45;;
3941;SDS011;1985;48.592;8.850;2022-07-17T04:42:58;11.10;;;2.45;;
3941;SDS011;1985;48.592;8.850;2022-07-17T04:45:24;11.50;;;2.50;;
3941;SDS011;1985;48.592;8.850;2022-07-17T04:47:50;10.88;;;2.50;;
3941;SDS011;1985;48.592;8.850;2022-07-17T04:50:15;9.88;;;2.33;;
3941;SDS011;1985;48.592;8.850;2022-07-17T04:52:41;9.50;;;1.95;;
3941;SDS011;1985;48.592;8.850;2022-07-17T04:55:07;10.10;;;2.50;;
3941;SDS011;1985;48.592;8.850;2022-07-17T04:57:33;10.32;;;2.30;;
3941;SDS011;1985;48.592;8.850;2022-07-17T04:59:58;9.38;;;2.35;;
3941;SDS011;1985;48.592;8.850;2022-07-17T05:02:24;9.63;;;2.50;;
3941;SDS011;1985;48.592;8.850;2022-07-17T05:04:50;10.63;;;2.50;;
3941;SDS011;1985;48.592;8.850;2022-07-17T05:07:15;11.30;;;2.58;;
3941;SDS011;1985;48.592;8.850;2022-07-17T05:09:42;10.50;;;2.60;;
3941;SDS011;1985;48.592;8.850;2022-07-17T05:12:07;9.48;;;2.10;;
3941;SDS011;1985;48.592;8.850;2022-07-17T05:14:33;11.53;;;2.90;;
3941;SDS011;1985;48.592;8.850;2022-07-17T05:16:59;10.40;;;2.47;;
3941;SDS011;1985;48.592;8.850;2022-07-17T05:19:25;10.60;;;2.30;;
3941;SDS011;1985;48.592;8.850;2022-07-17T05:21:51;9.90;;;2.50;;
3941;SDS011;1985;48.592;8.850;2022-07-17T05:24:16;11.60;;;2.30;;
3941;SDS011;1985;48.592;8.850;2022-07-17T05:26:42;12.20;;;2.60;;
3941;SDS011;1985;48.592;8.850;2022-07-17T05:29:08;10.80;;;2.80;;
3941;SDS011;1985;48.592;8.850;2022-07-17T05:31:33;10.23;;;2.50;;
3941;SDS011;1985;48.592;8.850;2022-07-17T05:33:59;9.53;;;2.17;;
3941;SDS011;1985;48.592;8.850;2022-07-17T05:36:24;10.07;;;2.60;;
3941;SDS011;1985;48.592;8.850;2022-07-17T05:38:50;11.18;;;2.80;;
3941;SDS011;1985;48.592;8.850;2022-07-17T05:41:16;11.40;;;2.37;;
3941;SDS011;1985;48.592;8.850;2022-07-17T05:43:42;10.45;;;2.25;;
3941;SDS011;1985;48.592;8.850;2022-07-17T05:46:07;9.30;;;2.35;;
3941;SDS011;1985;48.592;8.850;2022-07-17T05:48:33;13.80;;;2.27;;
3941;SDS011;1985;48.592;8.850;2022-07-17T05:50:58;9.30;;;2.20;;
3941;SDS011;1985;48.592;8.850;2022-07-17T05:53:24;10.00;;;2.40;;
3941;SDS011;1985;48.592;8.850;2022-07-17T05:55:50;10.02;;;2.47;;
3941;SDS011;1985;48.592;8.850;2022-07-17T05:58:16;9.43;;;2.15;;
3941;SDS011;1985;48.592;8.850;2022-07-17T06:00:42;10.60;;;2.40;;
3941;SDS011;1985;48.592;8.850;2022-07-17T06:03:09;10.50;;;2.40;;
3941;SDS011;1985;48.592;8.850;2022-07-17T06:05:34;10.80;;;2.60;;
3941;SDS011;1985;48.592;8.850;2022-07-17T06:08:00;9.30;;;2.30;;
3941;SDS011;1985;48.592;8.850;2022-07-17T06:10:27;9.00;;;1.90;;
3941;SDS011;1985;48.592;8.850;2022-07-17T06:12:53;9.38;;;2.20;;
3941;SDS011;1985;48.592;8.850;2022-07-17T06:15:22;10.73;;;2.20;;
3941;SDS011;1985;48.592;8.850;2022-07-17T06:17:48;8.80;;;1.60;;
3941;SDS011;1985;48.592;8.850;2022-07-17T06:20:15;9.93;;;1.90;;
3941;SDS011;1985;48.592;8.850;2022-07-17T06:22:41;9.70;;;2.00;;
3941;SDS011;1985;48.592;8.850;2022-07-17T06:25:08;9.80;;;2.00;;
3941;SDS011;1985;48.592;8.850;2022-07-17T06:27:34;10.07;;;2.47;;
3941;SDS011;1985;48.592;8.850;2022-07-17T06:30:00;9.38;;;2.05;;
3941;SDS011;1985;48.592;8.850;2022-07-17T06:32:26;10.70;;;2.40;;
3941;SDS011;1985;48.592;8.850;2022-07-17T06:34:52;9.60;;;1.92;;
3941;SDS011;1985;48.592;8.850;2022-07-17T06:37:18;9.23;;;2.20;;
3941;SDS011;1985;48.592;8.850;2022-07-17T06:39:43;9.00;;;1.92;;
3941;SDS011;1985;48.592;8.850;2022-07-17T06:42:09;9.23;;;2.00;;
3941;SDS011;1985;48.592;8.850;2022-07-17T06:44:38;9.63;;;2.20;;
3941;SDS011;1985;48.592;8.850;2022-07-17T06:47:03;9.23;;;2.10;;
3941;SDS011;1985;48.592;8.850;2022-07-17T06:49:29;9.32;;;2.03;;
3941;SDS011;1985;48.592;8.850;2022-07-17T06:51:55;9.10;;;2.05;;
3941;SDS011;1985;48.592;8.850;2022-07-17T06:54:20;8.87;;;1.80;;
3941;SDS011;1985;48.592;8.850;2022-07-17T06:56:51;10.85;;;2.20;;
3941;SDS011;1985;48.592;8.850;2022-07-17T06:59:19;8.60;;;1.60;;
3941;SDS011;1985;48.592;8.850;2022-07-17T07:01:45;9.50;;;1.95;;
3941;SDS011;1985;48.592;8.850;2022-07-17T07:04:11;9.60;;;2.03;;
3941;SDS011;1985;48.592;8.850;2022-07-17T07:06:37;9.90;;;2.10;;
3941;SDS011;1985;48.592;8.850;2022-07-17T07:09:02;9.90;;;2.20;;
3941;SDS011;1985;48.592;8.850;2022-07-17T07:11:28;9.63;;;2.00;;
3941;SDS011;1985;48.592;8.850;2022-07-17T07:13:54;9.77;;;2.20;;
3941;SDS011;1985;48.592;8.850;2022-07-17T07:16:20;9.53;;;1.50;;
3941;SDS011;1985;48.592;8.850;2022-07-17T07:18:46;9.13;;;1.80;;
3941;SDS011;1985;48.592;8.850;2022-07-17T07:21:11;9.38;;;1.83;;
3941;SDS011;1985;48.592;8.850;2022-07-17T07:23:37;9.00;;;1.80;;
3941;SDS011;1985;48.592;8.850;2022-07-17T07:26:03;9.30;;;1.90;;
3941;SDS011;1985;48.592;8.850;2022-07-17T07:28:28;9.90;;;1.80;;
3941;SDS011;1985;48.592;8.850;2022-07-17T07:30:54;9.50;;;1.90;;
3941;SDS011;1985;48.592;8.850;2022-07-17T07:33:20;8.60;;;1.80;;
3941;SDS011;1985;48.592;8.850;2022-07-17T07:35:46;8.88;;;1.90;;
3941;SDS011;1985;48.592;8.850;2022-07-17T07:38:11;8.50;;;1.58;;
3941;SDS011;1985;48.592;8.850;2022-07-17T07:40:37;8.43;;;1.50;;
3941;SDS011;1985;48.592;8.850;2022-07-17T07:43:03;9.20;;;2.10;;
3941;SDS011;1985;48.592;8.850;2022-07-17T07:45:28;8.33;;;1.57;;
3941;SDS011;1985;48.592;8.850;2022-07-17T07:47:56;8.85;;;1.73;;
3941;SDS011;1985;48.592;8.850;2022-07-17T07:50:22;9.53;;;2.20;;
3941;SDS011;1985;48.592;8.850;2022-07-17T07:52:49;9.05;;;1.83;;
3941;SDS011;1985;48.592;8.850;2022-07-17T07:55:15;8.82;;;1.90;;
3941;SDS011;1985;48.592;8.850;2022-07-17T07:57:41;8.80;;;1.90;;
3941;SDS011;1985;48.592;8.850;2022-07-17T08:00:07;9.37;;;2.10;;
3941;SDS011;1985;48.592;8.850;2022-07-17T08:02:34;9.45;;;1.98;;
3941;SDS011;1985;48.592;8.850;2022-07-17T08:05:00;8.65;;;1.65;;
3941;SDS011;1985;48.592;8.850;2022-07-17T08:07:26;11.40;;;1.90;;
3941;SDS011;1985;48.592;8.850;2022-07-17T08:09:53;9.20;;;1.80;;
3941;SDS011;1985;48.592;8.850;2022-07-17T08:12:19;8.30;;;1.58;;
3941;SDS011;1985;48.592;8.850;2022-07-17T08:14:45;8.52;;;1.70;;
3941;SDS011;1985;48.592;8.850;2022-07-17T08:17:10;9.43;;;1.90;;
3941;SDS011;1985;48.592;8.850;2022-07-17T08:19:36;9.20;;;1.70;;
3941;SDS011;1985;48.592;8.850;2022-07-17T08:22:02;8.40;;;1.70;;
3941;SDS011;1985;48.592;8.850;2022-07-17T08:24:27;8.20;;;1.50;;
3941;SDS011;1985;48.592;8.850;2022-07-17T08:26:53;9.10;;;1.70;;
3941;SDS011;1985;48.592;8.850;2022-07-17T08:29:19;8.70;;;1.80;;
3941;SDS011;1985;48.592;8.850;2022-07-17T08:31:44;8.77;;;1.80;;
3941;SDS011;1985;48.592;8.850;2022-07-17T08:34:10;8.47;;;1.73;;
3941;SDS011;1985;48.592;8.850;2022-07-17T08:36:35;8.80;;;1.90;;
3941;SDS011;1985;48.592;8.850;2022-07-17T08:39:01;9.77;;;1.90;;
3941;SDS011;1985;48.592;8.850;2022-07-17T08:41:28;9.10;;;1.50;;
3941;SDS011;1985;48.592;8.850;2022-07-17T08:43:54;9.40;;;2.03;;
3941;SDS011;1985;48.592;8.850;2022-07-17T08:46:21;8.27;;;1.60;;
3941;SDS011;1985;48.592;8.850;2022-07-17T08:48:50;9.00;;;1.80;;
3941;SDS011;1985;48.592;8.850;2022-07-17T08:51:24;9.27;;;1.70;;
3941;SDS011;1985;48.592;8.850;2022-07-17T08:53:51;8.10;;;1.60;;
3941;SDS011;1985;48.592;8.850;2022-07-17T08:56:17;8.20;;;1.60;;
3941;SDS011;1985;48.592;8.850;2022-07-17T08:58:43;10.27;;;1.80;;
3941;SDS011;1985;48.592;8.850;2022-07-17T09:01:09;8.88;;;1.90;;
3941;SDS011;1985;48.592;8.850;2022-07-17T09:03:35;9.20;;;1.80;;
3941;SDS011;1985;48.592;8.850;2022-07-17T09:06:01;9.07;;;1.75;;
3941;SDS011;1985;48.592;8.850;2022-07-17T09:08:27;9.23;;;2.25;;
3941;SDS011;1985;48.592;8.850;2022-07-17T09:10:57;8.70;;;1.60;;
3941;SDS011;1985;48.592;8.850;2022-07-17T09:13:30;9.30;;;1.80;;
3941;SDS011;1985;48.592;8.850;2022-07-17T09:16:05;8.43;;;1.70;;
3941;SDS011;1985;48.592;8.850;2022-07-17T09:18:36;8.68;;;2.00;;
3941;SDS011;1985;48.592;8.850;2022-07-17T09:21:19;12.00;;;1.70;;
3941;SDS011;1985;48.592;8.850;2022-07-17T09:23:56;8.00;;;1.50;;
3941;SDS011;1985;48.592;8.850;2022-07-17T09:26:43;8.85;;;1.73;;
3941;SDS011;1985;48.592;8.850;2022-07-17T09:29:12;8.70;;;1.80;;
3941;SDS011;1985;48.592;8.850;2022-07-17T09:31:38;9.20;;;1.60;;
3941;SDS011;1985;48.592;8.850;2022-07-17T09:34:04;9.77;;;1.88;;
3941;SDS011;1985;48.592;8.850;2022-07-17T09:36:30;8.82;;;1.70;;
3941;SDS011;1985;48.592;8.850;2022-07-17T09:38:57;9.73;;;2.00;;
3941;SDS011;1985;48.592;8.850;2022-07-17T09:41:24;9.50;;;1.83;;
3941;SDS011;1985;48.592;8.850;2022-07-17T09:43:51;8.18;;;1.60;;
3941;SDS011;1985;48.592;8.850;2022-07-17T09:48:54;10.27;;;1.83;;
3941;SDS011;1985;48.592;8.850;2022-07-17T09:51:38;11.70;;;1.80;;
3941;SDS011;1985;48.592;8.850;2022-07-17T09:54:05;9.80;;;2.22;;
3941;SDS011;1985;48.592;8.850;2022-07-17T09:56:33;8.80;;;1.58;;
3941;SDS011;1985;48.592;8.850;2022-07-17T09:59:11;8.20;;;1.50;;
3941;SDS011;1985;48.592;8.850;2022-07-17T10:01:38;7.90;;;1.70;;
3941;SDS011;1985;48.592;8.850;2022-07-17T10:04:05;8.65;;;1.73;;
3941;SDS011;1985;48.592;8.850;2022-07-17T10:06:31;8.05;;;1.33;;
3941;SDS011;1985;48.592;8.850;2022-07-17T10:08:57;8.35;;;1.60;;
3941;SDS011;1985;48.592;8.850;2022-07-17T10:11:29;8.30;;;1.60;;
3941;SDS011;1985;48.592;8.850;2022-07-17T10:14:01;9.17;;;1.87;;
3941;SDS011;1985;48.592;8.850;2022-07-17T10:16:30;8.30;;;1.60;;
3941;SDS011;1985;48.592;8.850;2022-07-17T10:18:58;8.25;;;1.90;;
3941;SDS011;1985;48.592;8.850;2022-07-17T10:21:27;8.30;;;1.65;;
3941;SDS011;1985;48.592;8.850;2022-07-17T10:29:01;8.50;;;1.80;;
3941;SDS011;1985;48.592;8.850;2022-07-17T10:31:29;8.48;;;1.80;;
3941;SDS011;1985;48.592;8.850;2022-07-17T10:33:59;10.57;;;1.80;;
3941;SDS011;1985;48.592;8.850;2022-07-17T10:36:33;7.53;;;1.50;;
3941;SDS011;1985;48.592;8.850;2022-07-17T10:42:01;7.80;;;1.50;;
3941;SDS011;1985;48.592;8.850;2022-07-17T10:44:28;8.57;;;1.65;;
3941;SDS011;1985;48.592;8.850;2022-07-17T10:46:55;8.80;;;1.60;;
3941;SDS011;1985;48.592;8.850;2022-07-17T10:49:25;9.80;;;1.63;;
3941;SDS011;1985;48.592;8.850;2022-07-17T10:51:51;9.73;;;1.87;;
3941;SDS011;1985;48.592;8.850;2022-07-17T10:54:19;8.90;;;1.70;;
3941;SDS011;1985;48.592;8.850;2022-07-17T10:56:45;8.30;;;1.50;;
3941;SDS011;1985;48.592;8.850;2022-07-17T10:59:11;8.10;;;1.80;;
3941;SDS011;1985;48.592;8.850;2022-07-17T11:01:38;8.13;;;1.40;;
3941;SDS011;1985;48.592;8.850;2022-07-17T11:04:04;8.00;;;1.60;;
3941;SDS011;1985;48.592;8.850;2022-07-17T11:06:35;7.45;;;1.30;;
3941;SDS011;1985;48.592;8.850;2022-07-17T11:14:28;7.30;;;1.50;;
3941;SDS011;1985;48.592;8.850;2022-07-17T11:21:53;7.72;;;1.45;;
3941;SDS011;1985;48.592;8.850;2022-07-17T11:24:20;7.43;;;1.40;;
3941;SDS011;1985;48.592;8.850;2022-07-17T11:26:48;8.20;;;1.40;;
3941;SDS011;1985;48.592;8.850;2022-07-17T11:29:15;7.80;;;1.50;;
3941;SDS011;1985;48.592;8.850;2022-07-17T11:31:41;7.40;;;1.30;;
3941;SDS011;1985;48.592;8.850;2022-07-17T11:34:08;7.88;;;1.80;;
3941;SDS011;1985;48.592;8.850;2022-07-17T11:36:36;9.45;;;1.88;;
3941;SDS011;1985;48.592;8.850;2022-07-17T11:39:07;7.70;;;1.50;;
3941;SDS011;1985;48.592;8.850;2022-07-17T11:41:40;7.72;;;1.70;;
3941;SDS011;1985;48.592;8.850;2022-07-17T11:44:11;8.00;;;1.20;;
3941;SDS011;1985;48.592;8.850;2022-07-17T11:46:39;9.50;;;1.30;;
3941;SDS011;1985;48.592;8.850;2022-07-17T11:49:06;7.50;;;1.30;;
3941;SDS011;1985;48.592;8.850;2022-07-17T11:51:54;8.00;;;1.40;;
3941;SDS011;1985;48.592;8.850;2022-07-17T11:54:20;7.47;;;1.50;;
3941;SDS011;1985;48.592;8.850;2022-07-17T11:56:52;7.50;;;1.50;;
3941;SDS011;1985;48.592;8.850;2022-07-17T11:59:27;8.30;;;1.30;;
3941;SDS011;1985;48.592;8.850;2022-07-17T12:01:54;7.70;;;1.50;;
3941;SDS011;1985;48.592;8.850;2022-07-17T12:04:20;8.60;;;1.40;;
3941;SDS011;1985;48.592;8.850;2022-07-17T12:06:57;7.38;;;1.30;;
3941;SDS011;1985;48.592;8.850;2022-07-17T12:09:25;8.00;;;1.50;;
3941;SDS011;1985;48.592;8.850;2022-07-17T12:11:52;7.90;;;1.37;;
3941;SDS011;1985;48.592;8.850;2022-07-17T12:14:17;8.70;;;1.20;;
3941;SDS011;1985;48.592;8.850;2022-07-17T12:16:43;7.50;;;1.47;;
3941;SDS011;1985;48.592;8.850;2022-07-17T12:22:20;7.22;;;1.33;;
3941;SDS011;1985;48.592;8.850;2022-07-17T12:24:32;7.40;;;1.20;;
3941;SDS011;1985;48.592;8.850;2022-07-17T12:27:02;7.10;;;1.20;;
3941;SDS011;1985;48.592;8.850;2022-07-17T12:29:30;7.40;;;1.30;;
3941;SDS011;1985;48.592;8.850;2022-07-17T12:32:00;7.70;;;1.40;;
3941;SDS011;1985;48.592;8.850;2022-07-17T12:34:32;7.40;;;1.20;;
3941;SDS011;1985;48.592;8.850;2022-07-17T12:37:02;7.45;;;1.23;;
3941;SDS011;1985;48.592;8.850;2022-07-17T12:39:29;7.20;;;1.20;;
3941;SDS011;1985;48.592;8.850;2022-07-17T12:41:56;7.40;;;1.30;;
3941;SDS011;1985;48.592;8.850;2022-07-17T12:44:22;8.00;;;1.20;;
3941;SDS011;1985;48.592;8.850;2022-07-17T12:46:48;7.40;;;1.30;;
3941;SDS011;1985;48.592;8.850;2022-07-17T12:49:13;7.40;;;1.37;;
3941;SDS011;1985;48.592;8.850;2022-07-17T12:51:39;7.68;;;1.20;;
3941;SDS011;1985;48.592;8.850;2022-07-17T12:54:05;8.00;;;1.52;;
3941;SDS011;1985;48.592;8.850;2022-07-17T12:56:31;7.28;;;1.30;;
3941;SDS011;1985;48.592;8.850;2022-07-17T12:58:57;7.20;;;1.20;;
3941;SDS011;1985;48.592;8.850;2022-07-17T13:01:24;7.10;;;1.13;;
3941;SDS011;1985;48.592;8.850;2022-07-17T13:03:49;7.50;;;1.50;;
3941;SDS011;1985;48.592;8.850;2022-07-17T13:06:15;7.10;;;1.10;;
3941;SDS011;1985;48.592;8.850;2022-07-17T13:08:41;8.20;;;1.43;;
3941;SDS011;1985;48.592;8.850;2022-07-17T13:11:06;7.07;;;1.20;;
3941;SDS011;1985;48.592;8.850;2022-07-17T13:13:32;11.43;;;1.20;;
3941;SDS011;1985;48.592;8.850;2022-07-17T13:15:58;8.15;;;1.25;;
3941;SDS011;1985;48.592;8.850;2022-07-17T13:18:23;7.70;;;1.23;;
3941;SDS011;1985;48.592;8.850;2022-07-17T13:20:49;7.20;;;1.30;;
3941;SDS011;1985;48.592;8.850;2022-07-17T13:23:15;7.10;;;1.17;;
3941;SDS011;1985;48.592;8.850;2022-07-17T13:25:41;7.60;;;1.37;;
3941;SDS011;1985;48.592;8.850;2022-07-17T13:28:10;8.30;;;1.50;;
3941;SDS011;1985;48.592;8.850;2022-07-17T13:30:36;8.57;;;1.20;;
3941;SDS011;1985;48.592;8.850;2022-07-17T13:33:02;7.35;;;1.20;;
3941;SDS011;1985;48.592;8.850;2022-07-17T13:35:28;9.65;;;1.20;;
3941;SDS011;1985;48.592;8.850;2022-07-17T13:37:54;7.10;;;1.17;;
3941;SDS011;1985;48.592;8.850;2022-07-17T13:40:21;7.30;;;1.20;;
3941;SDS011;1985;48.592;8.850;2022-07-17T13:42:49;7.00;;;1.17;;
3941;SDS011;1985;48.592;8.850;2022-07-17T13:45:15;7.80;;;1.40;;
3941;SDS011;1985;48.592;8.850;2022-07-17T13:47:41;7.10;;;1.20;;
3941;SDS011;1985;48.592;8.850;2022-07-17T13:50:06;8.90;;;1.30;;
3941;SDS011;1985;48.592;8.850;2022-07-17T13:52:32;7.70;;;1.20;;
3941;SDS011;1985;48.592;8.850;2022-07-17T13:54:58;7.70;;;1.33;;
3941;SDS011;1985;48.592;8.850;2022-07-17T13:57:24;7.53;;;1.30;;
3941;SDS011;1985;48.592;8.850;2022-07-17T13:59:50;9.70;;;1.40;;
3941;SDS011;1985;48.592;8.850;2022-07-17T14:02:16;8.40;;;1.20;;
3941;SDS011;1985;48.592;8.850;2022-07-17T14:04:42;7.45;;;1.20;;
3941;SDS011;1985;48.592;8.850;2022-07-17T14:07:07;7.10;;;1.20;;
3941;SDS011;1985;48.592;8.850;2022-07-17T14:09:33;7.90;;;1.40;;
3941;SDS011;1985;48.592;8.850;2022-07-17T14:11:59;7.30;;;1.10;;
3941;SDS011;1985;48.592;8.850;2022-07-17T14:14:25;8.30;;;1.20;;
3941;SDS011;1985;48.592;8.850;2022-07-17T14:16:51;8.82;;;1.40;;
3941;SDS011;1985;48.592;8.850;2022-07-17T14:19:17;7.40;;;1.23;;
3941;SDS011;1985;48.592;8.850;2022-07-17T14:21:43;7.50;;;1.30;;
3941;SDS011;1985;48.592;8.850;2022-07-17T14:24:08;7.50;;;1.20;;
3941;SDS011;1985;48.592;8.850;2022-07-17T14:26:35;7.53;;;1.65;;
3941;SDS011;1985;48.592;8.850;2022-07-17T14:29:01;8.20;;;1.30;;
3941;SDS011;1985;48.592;8.850;2022-07-17T14:31:28;7.40;;;1.30;;
3941;SDS011;1985;48.592;8.850;2022-07-17T14:33:55;7.68;;;1.40;;
3941;SDS011;1985;48.592;8.850;2022-07-17T14:36:20;7.70;;;1.30;;
3941;SDS011;1985;48.592;8.850;2022-07-17T14:38:46;7.53;;;1.33;;
3941;SDS011;1985;48.592;8.850;2022-07-17T14:41:12;7.97;;;1.30;;
3941;SDS011;1985;48.592;8.850;2022-07-17T14:43:38;7.20;;;1.30;;
3941;SDS011;1985;48.592;8.850;2022-07-17T14:46:04;9.80;;;1.30;;
3941;SDS011;1985;48.592;8.850;2022-07-17T14:48:29;7.40;;;1.50;;
3941;SDS011;1985;48.592;8.850;2022-07-17T14:50:56;7.78;;;1.60;;
3941;SDS011;1985;48.592;8.850;2022-07-17T14:53:22;7.20;;;1.10;;
3941;SDS011;1985;48.592;8.850;2022-07-17T14:55:47;7.55;;;1.40;;
3941;SDS011;1985;48.592;8.850;2022-07-17T14:58:13;7.50;;;1.23;;
3941;SDS011;1985;48.592;8.850;2022-07-17T15:00:39;7.57;;;1.10;;
3941;SDS011;1985;48.592;8.850;2022-07-17T15:03:04;7.70;;;1.40;;
3941;SDS011;1985;48.592;8.850;2022-07-17T15:05:30;9.20;;;1.50;;
3941;SDS011;1985;48.592;8.850;2022-07-17T15:07:56;7.80;;;1.30;;
3941;SDS011;1985;48.592;8.850;2022-07-17T15:10:22;7.25;;;1.30;;
3941;SDS011;1985;48.592;8.850;2022-07-17T15:12:48;7.90;;;1.33;;
3941;SDS011;1985;48.592;8.850;2022-07-17T15:15:13;7.43;;;1.30;;
3941;SDS011;1985;48.592;8.850;2022-07-17T15:17:39;7.90;;;1.33;;
3941;SDS011;1985;48.592;8.850;2022-07-17T15:20:05;8.07;;;1.27;;
3941;SDS011;1985;48.592;8.850;2022-07-17T15:22:31;7.70;;;1.40;;
3941;SDS011;1985;48.592;8.850;2022-07-17T15:24:57;7.40;;;1.40;;
3941;SDS011;1985;48.592;8.850;2022-07-17T15:27:22;8.00;;;1.60;;
3941;SDS011;1985;48.592;8.850;2022-07-17T15:29:48;8.17;;;1.70;;